createdAt,value
2023-03-01T00:03:45.878Z,102328.31
2023-03-01T00:07:45.050Z,102329.13
2023-03-01T00:11:46.257Z,102331.03
2023-03-01T00:15:45.076Z,102333.37
2023-03-01T00:19:45.251Z,102334.64
2023-03-01T00:23:45.193Z,102335.03
2023-03-01T00:27:46.789Z,102336.44
2023-03-01T00:31:45.148Z,102336.6
2023-03-01T00:35:45.514Z,102338.16
2023-03-01T00:55:45.383Z,102316.2
2023-03-01T00:59:45.216Z,102314.33
2023-03-01T01:07:45.436Z,102310.29999999999
2023-03-01T01:11:46.806Z,102312.21
2023-03-01T01:15:45.352Z,102306.4
2023-03-01T01:19:45.255Z,102311.44
2023-03-01T01:23:46.636Z,102306.14
2023-03-01T01:27:45.522Z,102305.5
2023-03-01T01:35:46.063Z,102310.19
2023-03-01T01:39:45.350Z,102304.58
2023-03-01T01:43:48.581Z,102298.19
2023-03-01T01:47:48.485Z,102292.71
2023-03-01T01:51:48.845Z,102292.31
2023-03-01T01:55:49.043Z,102284.41
2023-03-01T01:59:50.727Z,102281.91
2023-03-01T02:03:47.157Z,102276.56
2023-03-01T02:07:47.632Z,102266.31
2023-03-01T02:11:47.900Z,102261.47
2023-03-01T02:15:45.990Z,102260.05
2023-03-01T02:19:59.859Z,102254.49
2023-03-01T02:23:46.008Z,102248.28
2023-03-01T02:31:45.881Z,102242.78
2023-03-01T02:35:45.800Z,102241.58
2023-03-01T02:39:50.000Z,102237.06
2023-03-01T02:43:45.794Z,102235.91
2023-03-01T02:47:45.738Z,102236.73999999999
2023-03-01T02:51:52.742Z,102231.3
2023-03-01T02:55:45.781Z,102228.57
2023-03-01T02:59:45.608Z,102221.57999999999
2023-03-01T03:03:46.194Z,102212.34
2023-03-01T03:07:47.247Z,102209.27
2023-03-01T03:11:46.586Z,102205.66
2023-03-01T03:19:45.980Z,102201.65
2023-03-01T03:23:45.663Z,102201.92
2023-03-01T03:27:48.199Z,102198.65999999999
2023-03-01T03:31:45.698Z,102197.45
2023-03-01T03:35:48.452Z,102194.05
2023-03-01T03:43:46.187Z,102187.33
2023-03-01T03:47:45.844Z,102180.05
2023-03-01T03:51:46.385Z,102180.86
2023-03-01T03:59:45.816Z,102169.55
2023-03-01T04:03:46.817Z,102164.45
2023-03-01T04:07:46.421Z,102160.55
2023-03-01T04:11:45.721Z,102154.74
2023-03-01T04:15:45.961Z,102150.64
2023-03-01T04:19:48.670Z,102147.77
2023-03-01T04:23:46.117Z,102142.42
2023-03-01T04:31:48.374Z,102143.45
2023-03-01T04:35:45.984Z,102145.78
2023-03-01T04:55:46.067Z,102137.41
2023-03-01T05:07:46.125Z,102137.3
2023-03-01T05:11:46.236Z,102130.74
2023-03-01T05:15:46.948Z,102127.95
2023-03-01T05:19:46.179Z,102127.69
2023-03-01T05:23:46.803Z,102124.75
2023-03-01T05:27:46.104Z,102115.66
2023-03-01T05:31:46.476Z,102110.31
2023-03-01T05:35:46.162Z,102103.12
2023-03-01T05:39:46.124Z,102104.96
2023-03-01T05:43:46.219Z,102101.47
2023-03-01T05:47:47.936Z,102097.09
2023-03-01T05:51:49.411Z,102102.81
2023-03-01T05:55:47.323Z,102106.76
2023-03-01T06:03:46.225Z,102097.56
2023-03-01T06:11:46.516Z,102105.0
2023-03-01T06:15:46.212Z,102106.53
2023-03-01T06:19:47.156Z,102103.83
2023-03-01T06:23:46.101Z,102107.81
2023-03-01T06:27:48.591Z,102114.76
2023-03-01T06:35:46.899Z,102119.31
2023-03-01T06:39:46.114Z,102127.59
2023-03-01T06:43:46.472Z,102130.47
2023-03-01T06:51:46.520Z,102133.79
2023-03-01T06:55:46.168Z,102139.59999999999
2023-03-01T06:59:46.648Z,102137.84000000001
2023-03-01T07:03:46.276Z,102143.47
2023-03-01T07:07:46.798Z,102138.17
2023-03-01T07:11:46.964Z,102135.97
2023-03-01T07:19:46.465Z,102139.73
2023-03-01T07:23:47.686Z,102138.28
2023-03-01T07:27:49.072Z,102136.08
2023-03-01T07:31:46.555Z,102143.12999999999
2023-03-01T07:35:46.509Z,102143.47
2023-03-01T07:39:46.409Z,102151.15
2023-03-01T07:43:46.575Z,102148.94
2023-03-01T07:47:46.304Z,102149.03
2023-03-01T07:51:46.388Z,102147.38
2023-03-01T07:55:46.355Z,102147.43999999999
2023-03-01T07:59:46.494Z,102143.91
2023-03-01T08:07:46.617Z,102142.13
2023-03-01T08:11:46.497Z,102142.16
2023-03-01T08:15:46.598Z,102138.97
2023-03-01T08:19:46.381Z,102133.76
2023-03-01T08:23:46.591Z,102133.28
2023-03-01T08:27:46.445Z,102121.7
2023-03-01T08:31:47.475Z,102116.35
2023-03-01T08:35:46.463Z,102118.48
2023-03-01T08:39:46.926Z,102106.28
2023-03-01T08:43:46.728Z,102106.28
2023-03-01T08:47:46.642Z,102091.24
2023-03-01T08:51:47.602Z,102088.95
2023-03-01T08:55:46.816Z,102090.16
2023-03-01T08:59:46.529Z,102076.64
2023-03-01T09:03:47.009Z,102078.42000000001
2023-03-01T09:07:46.514Z,102082.06999999999
2023-03-01T09:11:46.796Z,102084.16
2023-03-01T09:15:46.623Z,102084.64
2023-03-01T09:19:46.690Z,102084.12
2023-03-01T09:23:48.403Z,102084.09
2023-03-01T09:27:46.739Z,102077.5
2023-03-01T09:31:46.655Z,102078.38
2023-03-01T09:35:47.902Z,102075.54000000001
2023-03-01T09:43:56.177Z,102076.26000000001
2023-03-01T09:47:48.623Z,102069.45
2023-03-01T09:51:55.163Z,102071.17
2023-03-01T09:55:52.201Z,102072.6
2023-03-01T10:00:00.814Z,102075.06
2023-03-01T10:04:02.061Z,102071.51
2023-03-01T10:07:58.898Z,102070.31
2023-03-01T10:11:50.421Z,102066.35
2023-03-01T10:19:47.715Z,102068.06
2023-03-01T10:23:51.664Z,102065.64
2023-03-01T10:27:52.390Z,102060.69
2023-03-01T10:31:48.761Z,102056.86
2023-03-01T10:35:48.546Z,102053.83
2023-03-01T10:39:57.424Z,102048.69
2023-03-01T10:43:49.764Z,102046.27
2023-03-01T10:47:46.827Z,102043.48999999999
2023-03-01T10:51:48.942Z,102033.31
2023-03-01T10:55:46.867Z,102028.81999999999
2023-03-01T11:00:09.172Z,102027.29000000001
2023-03-01T11:04:06.752Z,102027.93000000001
2023-03-01T11:07:48.678Z,102026.14
2023-03-01T11:11:52.070Z,102020.04
2023-03-01T11:20:02.938Z,102013.42
2023-03-01T11:23:47.302Z,101998.53
2023-03-01T11:27:47.323Z,101995.86
2023-03-01T11:31:57.279Z,101984.78
2023-03-01T11:35:54.893Z,101981.56
2023-03-01T11:39:53.637Z,101980.52
2023-03-01T11:43:52.489Z,101980.12999999999
2023-03-01T11:47:58.995Z,101972.16
2023-03-01T11:51:58.051Z,101961.65999999999
2023-03-01T11:56:02.832Z,101951.33
2023-03-01T12:04:05.160Z,101935.83
2023-03-01T12:07:53.086Z,101934.27
2023-03-01T12:16:04.880Z,101917.38
2023-03-01T12:20:01.586Z,101908.34
2023-03-01T12:24:02.950Z,101895.76
2023-03-01T12:28:02.567Z,101888.76000000001
2023-03-01T12:32:07.121Z,101890.16
2023-03-01T12:35:58.670Z,101886.75
2023-03-01T12:39:58.637Z,101879.98999999999
2023-03-01T12:43:58.424Z,101874.29
2023-03-01T12:48:04.496Z,101873.01999999999
2023-03-01T12:55:48.568Z,101871.2
2023-03-01T13:00:07.638Z,101855.88
2023-03-01T13:04:03.218Z,101840.48
2023-03-01T13:07:57.210Z,101837.47
2023-03-01T13:11:47.511Z,101830.02
2023-03-01T13:15:48.739Z,101828.43000000001
2023-03-01T13:19:56.814Z,101828.09
2023-03-01T13:23:48.131Z,101826.56
2023-03-01T13:27:47.555Z,101819.17
2023-03-01T13:31:58.399Z,101813.37
2023-03-01T13:35:47.353Z,101809.12
2023-03-01T13:39:47.283Z,101806.48
2023-03-01T13:43:48.205Z,101804.31999999999
2023-03-01T13:47:51.468Z,101800.03
2023-03-01T13:51:48.520Z,101789.37
2023-03-01T13:55:49.827Z,101789.15
2023-03-01T13:59:47.995Z,101779.69
2023-03-01T14:03:47.330Z,101782.83
2023-03-01T14:12:04.732Z,101771.17
2023-03-01T14:15:59.787Z,101767.72
2023-03-01T14:19:54.471Z,101762.3
2023-03-01T14:23:47.688Z,101755.47
2023-03-01T14:27:54.732Z,101751.9
2023-03-01T14:31:53.426Z,101747.85
2023-03-01T14:35:58.557Z,101747.85
2023-03-01T14:39:47.600Z,101757.08
2023-03-01T14:43:51.476Z,101751.81999999999
2023-03-01T14:51:53.373Z,101729.5
2023-03-01T14:55:51.428Z,101727.91
2023-03-01T14:59:50.677Z,101726.53
2023-03-01T15:03:49.124Z,101720.08
2023-03-01T15:07:48.892Z,101712.21
2023-03-01T15:11:48.420Z,101702.07
2023-03-01T15:15:50.128Z,101699.76000000001
2023-03-01T15:19:47.857Z,101687.87
2023-03-01T15:23:51.962Z,101679.42
2023-03-01T15:27:49.928Z,101678.45
2023-03-01T15:31:55.626Z,101673.36
2023-03-01T15:35:49.259Z,101671.57999999999
2023-03-01T15:39:54.485Z,101667.0
2023-03-01T15:43:49.625Z,101665.89
2023-03-01T15:47:50.084Z,101661.7
2023-03-01T15:55:50.153Z,101652.81
2023-03-01T15:59:47.691Z,101646.87
2023-03-01T16:03:47.776Z,101644.0
2023-03-01T16:07:47.852Z,101626.84000000001
2023-03-01T16:11:48.024Z,101627.58
2023-03-01T16:15:47.707Z,101618.76999999999
2023-03-01T16:19:47.768Z,101615.94
2023-03-01T16:23:48.065Z,101604.92
2023-03-01T16:27:49.346Z,101602.99
2023-03-01T16:31:47.992Z,101615.52
2023-03-01T16:35:47.924Z,101610.24
2023-03-01T16:39:50.096Z,101603.24
2023-03-01T16:43:48.695Z,101605.38
2023-03-01T16:47:47.772Z,101614.89
2023-03-01T16:51:47.783Z,101616.49
2023-03-01T16:55:52.694Z,101615.32999999999
2023-03-01T16:59:51.311Z,101621.61
2023-03-01T17:03:49.694Z,101618.40999999999
2023-03-01T17:07:47.989Z,101619.78
2023-03-01T17:11:48.068Z,101623.39
2023-03-01T17:15:48.001Z,101618.33
2023-03-01T17:19:48.047Z,101615.8
2023-03-01T17:23:49.431Z,101616.64
2023-03-01T17:27:47.946Z,101620.25
2023-03-01T17:31:47.987Z,101622.79
2023-03-01T17:35:49.448Z,101624.71
2023-03-01T17:39:48.143Z,101630.92
2023-03-01T17:43:47.962Z,101622.99
2023-03-01T17:47:48.192Z,101617.69
2023-03-01T17:51:48.029Z,101617.76999999999
2023-03-01T17:55:52.974Z,101615.28
2023-03-01T17:59:47.942Z,101612.64
2023-03-01T18:03:50.113Z,101609.88
2023-03-01T18:07:48.017Z,101605.86
2023-03-01T18:11:48.241Z,101610.47
2023-03-01T18:19:48.958Z,101615.56
2023-03-01T18:23:48.031Z,101617.98999999999
2023-03-01T18:27:48.386Z,101620.96
2023-03-01T18:31:48.526Z,101619.2
2023-03-01T18:35:49.021Z,101626.45
2023-03-01T18:39:49.678Z,101632.17
2023-03-01T18:43:49.005Z,101631.92
2023-03-01T18:47:48.890Z,101630.5
2023-03-01T18:51:49.710Z,101627.17
2023-03-01T18:55:48.087Z,101615.77
2023-03-01T18:59:48.329Z,101615.20000000001
2023-03-01T19:03:48.913Z,101618.42
2023-03-01T19:07:48.590Z,101618.2
2023-03-01T19:11:48.183Z,101626.39
2023-03-01T19:15:48.351Z,101622.0
2023-03-01T19:19:49.183Z,101618.46
2023-03-01T19:27:48.242Z,101615.45
2023-03-01T19:31:48.352Z,101618.46
2023-03-01T19:35:48.657Z,101621.06
2023-03-01T19:39:48.368Z,101624.58
2023-03-01T19:43:48.337Z,101628.52
2023-03-01T19:47:49.866Z,101629.69
2023-03-01T19:55:48.881Z,101621.77
2023-03-01T19:59:48.290Z,101620.28
2023-03-01T20:03:48.293Z,101619.64
2023-03-01T20:07:50.007Z,101621.42
2023-03-01T20:11:49.349Z,101619.55
2023-03-01T20:15:48.657Z,101622.11
2023-03-01T20:19:48.489Z,101625.33
2023-03-01T20:23:48.361Z,101633.61
2023-03-01T20:27:50.618Z,101636.15999999999
2023-03-01T20:31:48.446Z,101635.82
2023-03-01T20:35:49.637Z,101638.25
2023-03-01T20:39:48.848Z,101638.81999999999
2023-03-01T20:43:55.312Z,101635.1
2023-03-01T20:47:48.811Z,101636.05
2023-03-01T20:51:48.641Z,101633.62
2023-03-01T20:55:48.525Z,101633.29
2023-03-01T20:59:48.536Z,101637.77
2023-03-01T21:03:48.539Z,101638.21
2023-03-01T21:07:49.640Z,101645.61
2023-03-01T21:11:48.634Z,101647.45
2023-03-01T21:15:52.392Z,101646.3
2023-03-01T21:19:49.644Z,101646.66
2023-03-01T21:23:48.764Z,101645.06
2023-03-01T21:31:49.715Z,101646.39
2023-03-01T21:39:48.816Z,101648.29
2023-03-01T21:51:49.097Z,101644.94
2023-03-01T21:55:50.371Z,101637.85
2023-03-01T21:59:48.683Z,101641.66
2023-03-01T22:07:49.047Z,101642.62999999999
2023-03-01T22:11:51.462Z,101644.14
2023-03-01T22:15:48.773Z,101648.97
2023-03-01T22:23:48.769Z,101650.55
2023-03-01T22:27:48.800Z,101643.26999999999
2023-03-01T22:31:49.587Z,101653.61
2023-03-01T22:35:48.858Z,101654.16
2023-03-01T22:39:49.046Z,101659.06
2023-03-01T22:43:48.771Z,101656.92
2023-03-01T22:47:49.167Z,101662.33
2023-03-01T22:51:50.475Z,101664.94
2023-03-01T22:55:49.052Z,101667.07
2023-03-01T22:59:48.786Z,101665.72
2023-03-01T23:03:49.541Z,101664.35
2023-03-01T23:07:48.821Z,101665.31
2023-03-01T23:11:49.765Z,101665.64
2023-03-01T23:15:51.671Z,101663.81999999999
2023-03-01T23:19:50.444Z,101660.64
2023-03-01T23:23:49.505Z,101660.83
2023-03-01T23:27:48.839Z,101663.42
2023-03-01T23:35:49.578Z,101660.88
2023-03-01T23:39:48.890Z,101660.65999999999
2023-03-01T23:43:50.904Z,101665.59
2023-03-01T23:47:48.948Z,101665.73
2023-03-01T23:51:49.341Z,101667.98999999999
2023-03-01T23:55:51.970Z,101662.64
2023-03-01T23:59:49.793Z,101658.69
